Main page
METAR-TAF:

METAR-TAF

Airports :

Bartolomeu Lysandro Airport

Campos dos Goytacazes, Rio de Janeiro, Brazil

latitude: 21-45S, longitude: 041-20W, elevation: 11 m

Current weather observation

The report was made 21 minutes ago, at 18:00 UTC
Wind 7 kt from the South/Southwest
Temperature 24°C
Humidity 94%
Pressure 1009 hPa
Visibility: 3500 m
Broken clouds at a height of 800 ft
Overcast at a height of 9000 ft
light rain

METAR: SBCP 251800Z 21007KT 3500 -RA BKN008 OVC090 24/23 Q1009

Time: 15:21 (18:21 UTC)

Forecast

The report was made 9 hours and 21 minutes ago, at 09:00 UTC
Forecast valid from 25 at 12 UTC to 25 at 24 UTC
Wind 5 kt from the North/Northwest
Visibility: 7000 m
Scattered clouds at a height of 1000 ft
Becoming
from 25 at 13 UTC to 25 at 15 UTC
Wind 10 kt from the South/Southeast
Visibility 10 km or more
Scattered clouds at a height of 2000 ft

TAF: SBCP 250900Z 2512/2524 33005KT 7000 SCT010 TX26/2516Z TN25/2521Z BECMG 2513/2515 16010KT 9999 SCT020 RMK PHD

Weather observations and forecasts of more than 4000 airports (METAR and TAF reports).

The available stations are represented by yellow and red dots on the map.

Hover mouse over dot to see the name of the station.

Then click to see weather observations and forecasts.

To change the map : click on the green buttons with a black cross to zoom in, on the green button with a dash to zoom out, or on the green arrows for adjacent maps.


METAR-TAF: